sensor_id;sensor_type;location;lat;lon;timestamp;P1;durP1;ratioP1;P2;durP2;ratioP2
70367;SDS011;57789;53.868;10.728;2023-04-16T00:02:17;23.43;;;12.50;;
70367;SDS011;57789;53.868;10.728;2023-04-16T00:04:43;19.23;;;11.17;;
70367;SDS011;57789;53.868;10.728;2023-04-16T00:07:09;18.40;;;12.23;;
70367;SDS011;57789;53.868;10.728;2023-04-16T00:09:35;23.03;;;13.57;;
70367;SDS011;57789;53.868;10.728;2023-04-16T00:12:00;22.73;;;12.33;;
70367;SDS011;57789;53.868;10.728;2023-04-16T00:14:26;18.07;;;11.83;;
70367;SDS011;57789;53.868;10.728;2023-04-16T00:16:52;23.27;;;13.13;;
70367;SDS011;57789;53.868;10.728;2023-04-16T00:19:17;18.33;;;11.23;;
70367;SDS011;57789;53.868;10.728;2023-04-16T00:21:43;21.10;;;11.27;;
70367;SDS011;57789;53.868;10.728;2023-04-16T00:24:09;24.33;;;12.43;;
70367;SDS011;57789;53.868;10.728;2023-04-16T00:26:35;21.50;;;12.30;;
70367;SDS011;57789;53.868;10.728;2023-04-16T00:29:00;21.30;;;11.63;;
70367;SDS011;57789;53.868;10.728;2023-04-16T00:31:29;20.00;;;11.93;;
70367;SDS011;57789;53.868;10.728;2023-04-16T00:33:57;25.00;;;12.50;;
70367;SDS011;57789;53.868;10.728;2023-04-16T00:36:23;25.97;;;12.33;;
70367;SDS011;57789;53.868;10.728;2023-04-16T00:38:51;25.33;;;12.60;;
70367;SDS011;57789;53.868;10.728;2023-04-16T00:41:17;19.30;;;11.70;;
70367;SDS011;57789;53.868;10.728;2023-04-16T00:43:42;21.20;;;11.37;;
70367;SDS011;57789;53.868;10.728;2023-04-16T00:46:08;21.43;;;12.00;;
70367;SDS011;57789;53.868;10.728;2023-04-16T00:48:34;22.90;;;13.00;;
70367;SDS011;57789;53.868;10.728;2023-04-16T00:51:03;20.37;;;10.87;;
70367;SDS011;57789;53.868;10.728;2023-04-16T00:53:30;18.87;;;10.83;;
70367;SDS011;57789;53.868;10.728;2023-04-16T00:55:56;31.90;;;11.43;;
70367;SDS011;57789;53.868;10.728;2023-04-16T00:58:22;19.33;;;12.47;;
70367;SDS011;57789;53.868;10.728;2023-04-16T01:00:49;21.53;;;11.60;;
70367;SDS011;57789;53.868;10.728;2023-04-16T01:03:15;19.57;;;11.80;;
70367;SDS011;57789;53.868;10.728;2023-04-16T01:05:41;24.77;;;12.47;;
70367;SDS011;57789;53.868;10.728;2023-04-16T01:08:14;16.47;;;11.33;;
70367;SDS011;57789;53.868;10.728;2023-04-16T01:10:41;20.60;;;11.47;;
70367;SDS011;57789;53.868;10.728;2023-04-16T01:13:07;29.27;;;12.20;;
70367;SDS011;57789;53.868;10.728;2023-04-16T01:15:33;22.33;;;12.00;;
70367;SDS011;57789;53.868;10.728;2023-04-16T01:17:58;21.67;;;12.23;;
70367;SDS011;57789;53.868;10.728;2023-04-16T01:20:24;23.60;;;12.10;;
70367;SDS011;57789;53.868;10.728;2023-04-16T01:22:50;22.03;;;11.27;;
70367;SDS011;57789;53.868;10.728;2023-04-16T01:25:15;21.20;;;11.63;;
70367;SDS011;57789;53.868;10.728;2023-04-16T01:27:41;20.27;;;11.83;;
70367;SDS011;57789;53.868;10.728;2023-04-16T01:30:07;20.90;;;13.03;;
70367;SDS011;57789;53.868;10.728;2023-04-16T01:32:33;23.73;;;13.47;;
70367;SDS011;57789;53.868;10.728;2023-04-16T01:34:59;18.00;;;11.77;;
70367;SDS011;57789;53.868;10.728;2023-04-16T01:37:24;20.70;;;11.90;;
70367;SDS011;57789;53.868;10.728;2023-04-16T01:39:50;20.30;;;12.00;;
70367;SDS011;57789;53.868;10.728;2023-04-16T01:42:16;24.57;;;12.57;;
70367;SDS011;57789;53.868;10.728;2023-04-16T01:44:42;19.63;;;11.80;;
70367;SDS011;57789;53.868;10.728;2023-04-16T01:47:07;20.83;;;12.90;;
70367;SDS011;57789;53.868;10.728;2023-04-16T01:49:33;23.67;;;14.50;;
70367;SDS011;57789;53.868;10.728;2023-04-16T01:51:59;27.10;;;13.60;;
70367;SDS011;57789;53.868;10.728;2023-04-16T01:54:25;20.57;;;11.70;;
70367;SDS011;57789;53.868;10.728;2023-04-16T01:56:51;26.00;;;11.63;;
70367;SDS011;57789;53.868;10.728;2023-04-16T01:59:17;21.50;;;12.33;;
70367;SDS011;57789;53.868;10.728;2023-04-16T02:01:42;20.40;;;11.67;;
70367;SDS011;57789;53.868;10.728;2023-04-16T02:04:08;22.10;;;10.97;;
70367;SDS011;57789;53.868;10.728;2023-04-16T02:06:35;24.73;;;12.60;;
70367;SDS011;57789;53.868;10.728;2023-04-16T02:09:01;31.50;;;13.60;;
70367;SDS011;57789;53.868;10.728;2023-04-16T02:11:27;21.50;;;12.90;;
70367;SDS011;57789;53.868;10.728;2023-04-16T02:13:52;22.63;;;12.40;;
70367;SDS011;57789;53.868;10.728;2023-04-16T02:16:18;20.10;;;12.73;;
70367;SDS011;57789;53.868;10.728;2023-04-16T02:18:44;21.30;;;12.60;;
70367;SDS011;57789;53.868;10.728;2023-04-16T02:21:09;19.13;;;11.97;;
70367;SDS011;57789;53.868;10.728;2023-04-16T02:23:35;25.43;;;12.73;;
70367;SDS011;57789;53.868;10.728;2023-04-16T02:26:01;20.30;;;11.63;;
70367;SDS011;57789;53.868;10.728;2023-04-16T02:28:27;26.47;;;10.77;;
70367;SDS011;57789;53.868;10.728;2023-04-16T02:30:53;26.83;;;13.30;;
70367;SDS011;57789;53.868;10.728;2023-04-16T02:33:18;26.73;;;12.10;;
70367;SDS011;57789;53.868;10.728;2023-04-16T02:35:44;21.20;;;11.57;;
70367;SDS011;57789;53.868;10.728;2023-04-16T02:38:10;18.20;;;11.30;;
70367;SDS011;57789;53.868;10.728;2023-04-16T02:40:35;24.57;;;11.63;;
70367;SDS011;57789;53.868;10.728;2023-04-16T02:43:01;23.43;;;12.57;;
70367;SDS011;57789;53.868;10.728;2023-04-16T02:45:27;20.83;;;12.00;;
70367;SDS011;57789;53.868;10.728;2023-04-16T02:47:52;22.67;;;12.50;;
70367;SDS011;57789;53.868;10.728;2023-04-16T02:50:18;23.90;;;12.07;;
70367;SDS011;57789;53.868;10.728;2023-04-16T02:52:44;21.40;;;11.80;;
70367;SDS011;57789;53.868;10.728;2023-04-16T02:55:10;18.00;;;10.83;;
70367;SDS011;57789;53.868;10.728;2023-04-16T02:57:35;25.37;;;12.40;;
70367;SDS011;57789;53.868;10.728;2023-04-16T03:00:01;20.00;;;11.90;;
70367;SDS011;57789;53.868;10.728;2023-04-16T03:02:29;19.70;;;11.47;;
70367;SDS011;57789;53.868;10.728;2023-04-16T03:04:54;19.20;;;11.47;;
70367;SDS011;57789;53.868;10.728;2023-04-16T03:07:20;22.33;;;11.13;;
70367;SDS011;57789;53.868;10.728;2023-04-16T03:09:46;21.23;;;12.03;;
70367;SDS011;57789;53.868;10.728;2023-04-16T03:12:11;23.90;;;11.50;;
70367;SDS011;57789;53.868;10.728;2023-04-16T03:14:37;18.03;;;11.80;;
70367;SDS011;57789;53.868;10.728;2023-04-16T03:17:03;25.00;;;12.33;;
70367;SDS011;57789;53.868;10.728;2023-04-16T03:19:28;22.40;;;11.80;;
70367;SDS011;57789;53.868;10.728;2023-04-16T03:21:54;20.40;;;12.07;;
70367;SDS011;57789;53.868;10.728;2023-04-16T03:24:20;25.70;;;13.23;;
70367;SDS011;57789;53.868;10.728;2023-04-16T03:26:45;19.47;;;12.83;;
70367;SDS011;57789;53.868;10.728;2023-04-16T03:29:11;19.70;;;11.00;;
70367;SDS011;57789;53.868;10.728;2023-04-16T03:31:37;21.57;;;10.87;;
70367;SDS011;57789;53.868;10.728;2023-04-16T03:34:02;20.43;;;11.97;;
70367;SDS011;57789;53.868;10.728;2023-04-16T03:36:28;22.47;;;13.73;;
70367;SDS011;57789;53.868;10.728;2023-04-16T03:38:54;27.17;;;12.67;;
70367;SDS011;57789;53.868;10.728;2023-04-16T03:41:19;20.53;;;11.43;;
70367;SDS011;57789;53.868;10.728;2023-04-16T03:43:45;17.47;;;11.30;;
70367;SDS011;57789;53.868;10.728;2023-04-16T03:46:11;24.10;;;13.17;;
70367;SDS011;57789;53.868;10.728;2023-04-16T03:48:36;26.40;;;12.60;;
70367;SDS011;57789;53.868;10.728;2023-04-16T03:51:02;25.20;;;13.13;;
70367;SDS011;57789;53.868;10.728;2023-04-16T03:53:28;25.50;;;12.20;;
70367;SDS011;57789;53.868;10.728;2023-04-16T03:55:54;21.00;;;12.23;;
70367;SDS011;57789;53.868;10.728;2023-04-16T03:58:19;22.27;;;12.00;;
70367;SDS011;57789;53.868;10.728;2023-04-16T04:00:45;24.30;;;13.53;;
70367;SDS011;57789;53.868;10.728;2023-04-16T04:03:12;21.90;;;13.30;;
70367;SDS011;57789;53.868;10.728;2023-04-16T04:05:41;23.23;;;14.60;;
70367;SDS011;57789;53.868;10.728;2023-04-16T04:08:07;25.00;;;13.43;;
70367;SDS011;57789;53.868;10.728;2023-04-16T04:10:35;24.23;;;13.40;;
70367;SDS011;57789;53.868;10.728;2023-04-16T04:13:02;26.90;;;12.77;;
70367;SDS011;57789;53.868;10.728;2023-04-16T04:15:28;19.23;;;12.80;;
70367;SDS011;57789;53.868;10.728;2023-04-16T04:17:54;22.00;;;14.30;;
70367;SDS011;57789;53.868;10.728;2023-04-16T04:20:20;24.73;;;14.37;;
70367;SDS011;57789;53.868;10.728;2023-04-16T04:22:46;29.30;;;17.77;;
70367;SDS011;57789;53.868;10.728;2023-04-16T04:25:12;27.70;;;16.27;;
70367;SDS011;57789;53.868;10.728;2023-04-16T04:27:38;23.63;;;13.43;;
70367;SDS011;57789;53.868;10.728;2023-04-16T04:30:04;23.83;;;12.43;;
70367;SDS011;57789;53.868;10.728;2023-04-16T04:32:30;25.70;;;13.20;;
70367;SDS011;57789;53.868;10.728;2023-04-16T04:34:57;27.17;;;14.57;;
70367;SDS011;57789;53.868;10.728;2023-04-16T04:37:25;27.83;;;15.83;;
70367;SDS011;57789;53.868;10.728;2023-04-16T04:39:51;26.33;;;13.60;;
70367;SDS011;57789;53.868;10.728;2023-04-16T04:42:16;24.90;;;15.10;;
70367;SDS011;57789;53.868;10.728;2023-04-16T04:44:43;27.20;;;14.50;;
70367;SDS011;57789;53.868;10.728;2023-04-16T04:47:09;24.50;;;13.93;;
70367;SDS011;57789;53.868;10.728;2023-04-16T04:49:35;23.07;;;13.50;;
70367;SDS011;57789;53.868;10.728;2023-04-16T04:52:00;22.97;;;13.43;;
70367;SDS011;57789;53.868;10.728;2023-04-16T04:54:29;25.40;;;15.63;;
70367;SDS011;57789;53.868;10.728;2023-04-16T04:56:55;21.07;;;13.37;;
70367;SDS011;57789;53.868;10.728;2023-04-16T04:59:21;25.40;;;13.43;;
70367;SDS011;57789;53.868;10.728;2023-04-16T05:01:48;23.57;;;15.10;;
70367;SDS011;57789;53.868;10.728;2023-04-16T05:04:14;21.23;;;13.80;;
70367;SDS011;57789;53.868;10.728;2023-04-16T05:06:40;22.80;;;14.70;;
70367;SDS011;57789;53.868;10.728;2023-04-16T05:09:06;28.60;;;15.30;;
70367;SDS011;57789;53.868;10.728;2023-04-16T05:11:35;22.47;;;15.10;;
70367;SDS011;57789;53.868;10.728;2023-04-16T05:14:05;21.47;;;13.27;;
70367;SDS011;57789;53.868;10.728;2023-04-16T05:16:31;26.60;;;14.27;;
70367;SDS011;57789;53.868;10.728;2023-04-16T05:18:56;21.60;;;13.23;;
70367;SDS011;57789;53.868;10.728;2023-04-16T05:21:23;25.93;;;14.50;;
70367;SDS011;57789;53.868;10.728;2023-04-16T05:23:50;30.57;;;14.50;;
70367;SDS011;57789;53.868;10.728;2023-04-16T05:26:15;25.97;;;14.37;;
70367;SDS011;57789;53.868;10.728;2023-04-16T05:28:41;22.27;;;13.47;;
70367;SDS011;57789;53.868;10.728;2023-04-16T05:31:07;24.73;;;13.63;;
70367;SDS011;57789;53.868;10.728;2023-04-16T05:33:33;18.80;;;12.10;;
70367;SDS011;57789;53.868;10.728;2023-04-16T05:35:58;29.87;;;13.77;;
70367;SDS011;57789;53.868;10.728;2023-04-16T05:38:24;26.30;;;14.20;;
70367;SDS011;57789;53.868;10.728;2023-04-16T05:40:50;20.90;;;12.63;;
70367;SDS011;57789;53.868;10.728;2023-04-16T05:43:16;26.33;;;14.60;;
70367;SDS011;57789;53.868;10.728;2023-04-16T05:45:42;22.73;;;13.30;;
70367;SDS011;57789;53.868;10.728;2023-04-16T05:48:07;22.93;;;13.90;;
70367;SDS011;57789;53.868;10.728;2023-04-16T05:50:34;23.93;;;13.20;;
70367;SDS011;57789;53.868;10.728;2023-04-16T05:53:00;25.67;;;15.13;;
70367;SDS011;57789;53.868;10.728;2023-04-16T05:55:27;25.30;;;15.10;;
70367;SDS011;57789;53.868;10.728;2023-04-16T05:57:52;25.30;;;14.43;;
70367;SDS011;57789;53.868;10.728;2023-04-16T06:00:18;24.67;;;12.73;;
70367;SDS011;57789;53.868;10.728;2023-04-16T06:02:44;21.23;;;12.70;;
70367;SDS011;57789;53.868;10.728;2023-04-16T06:05:10;17.70;;;11.67;;
70367;SDS011;57789;53.868;10.728;2023-04-16T06:07:36;23.23;;;13.40;;
70367;SDS011;57789;53.868;10.728;2023-04-16T06:10:01;21.40;;;13.07;;
70367;SDS011;57789;53.868;10.728;2023-04-16T06:12:27;24.60;;;14.27;;
70367;SDS011;57789;53.868;10.728;2023-04-16T06:14:53;18.33;;;11.50;;
70367;SDS011;57789;53.868;10.728;2023-04-16T06:17:18;22.30;;;13.50;;
70367;SDS011;57789;53.868;10.728;2023-04-16T06:19:45;21.37;;;12.87;;
70367;SDS011;57789;53.868;10.728;2023-04-16T06:22:10;24.47;;;12.43;;
70367;SDS011;57789;53.868;10.728;2023-04-16T06:24:36;21.03;;;13.77;;
70367;SDS011;57789;53.868;10.728;2023-04-16T06:27:02;20.67;;;13.30;;
70367;SDS011;57789;53.868;10.728;2023-04-16T06:29:28;24.03;;;13.60;;
70367;SDS011;57789;53.868;10.728;2023-04-16T06:31:53;27.43;;;11.03;;
70367;SDS011;57789;53.868;10.728;2023-04-16T06:34:20;24.83;;;13.30;;
70367;SDS011;57789;53.868;10.728;2023-04-16T06:36:45;19.70;;;12.50;;
70367;SDS011;57789;53.868;10.728;2023-04-16T06:39:11;19.00;;;13.17;;
70367;SDS011;57789;53.868;10.728;2023-04-16T06:41:37;21.57;;;13.20;;
70367;SDS011;57789;53.868;10.728;2023-04-16T06:44:02;23.20;;;11.43;;
70367;SDS011;57789;53.868;10.728;2023-04-16T06:46:28;25.63;;;12.40;;
70367;SDS011;57789;53.868;10.728;2023-04-16T06:48:54;19.43;;;11.43;;
70367;SDS011;57789;53.868;10.728;2023-04-16T06:51:19;17.07;;;11.93;;
70367;SDS011;57789;53.868;10.728;2023-04-16T06:53:45;21.03;;;12.63;;
70367;SDS011;57789;53.868;10.728;2023-04-16T06:56:11;19.73;;;12.10;;
70367;SDS011;57789;53.868;10.728;2023-04-16T06:58:36;19.53;;;12.00;;
70367;SDS011;57789;53.868;10.728;2023-04-16T07:01:02;22.53;;;12.63;;
70367;SDS011;57789;53.868;10.728;2023-04-16T07:03:28;15.93;;;11.70;;
70367;SDS011;57789;53.868;10.728;2023-04-16T07:05:54;16.80;;;10.70;;
70367;SDS011;57789;53.868;10.728;2023-04-16T07:08:20;19.17;;;12.23;;
70367;SDS011;57789;53.868;10.728;2023-04-16T07:10:45;25.60;;;13.23;;
70367;SDS011;57789;53.868;10.728;2023-04-16T07:13:11;17.23;;;11.20;;
70367;SDS011;57789;53.868;10.728;2023-04-16T07:15:37;20.90;;;12.60;;
70367;SDS011;57789;53.868;10.728;2023-04-16T07:18:03;22.17;;;12.07;;
70367;SDS011;57789;53.868;10.728;2023-04-16T07:20:28;17.80;;;11.30;;
70367;SDS011;57789;53.868;10.728;2023-04-16T07:22:54;23.43;;;11.80;;
70367;SDS011;57789;53.868;10.728;2023-04-16T07:25:20;24.30;;;12.13;;
70367;SDS011;57789;53.868;10.728;2023-04-16T07:27:46;20.43;;;11.03;;
70367;SDS011;57789;53.868;10.728;2023-04-16T07:30:11;19.93;;;12.70;;
70367;SDS011;57789;53.868;10.728;2023-04-16T07:32:37;19.23;;;10.97;;
70367;SDS011;57789;53.868;10.728;2023-04-16T07:35:03;18.20;;;12.33;;
70367;SDS011;57789;53.868;10.728;2023-04-16T07:37:29;19.50;;;11.87;;
70367;SDS011;57789;53.868;10.728;2023-04-16T07:39:54;29.20;;;12.10;;
70367;SDS011;57789;53.868;10.728;2023-04-16T07:42:21;22.03;;;12.07;;
70367;SDS011;57789;53.868;10.728;2023-04-16T07:44:47;19.07;;;11.57;;
70367;SDS011;57789;53.868;10.728;2023-04-16T07:47:13;24.13;;;13.70;;
70367;SDS011;57789;53.868;10.728;2023-04-16T07:49:38;18.90;;;12.27;;
70367;SDS011;57789;53.868;10.728;2023-04-16T07:52:04;21.40;;;13.10;;
70367;SDS011;57789;53.868;10.728;2023-04-16T07:54:30;21.37;;;12.87;;
70367;SDS011;57789;53.868;10.728;2023-04-16T07:56:56;26.57;;;13.50;;
70367;SDS011;57789;53.868;10.728;2023-04-16T07:59:21;20.87;;;13.63;;
70367;SDS011;57789;53.868;10.728;2023-04-16T08:01:47;19.93;;;12.57;;
70367;SDS011;57789;53.868;10.728;2023-04-16T08:04:13;20.77;;;12.10;;
70367;SDS011;57789;53.868;10.728;2023-04-16T08:06:41;26.47;;;13.17;;
70367;SDS011;57789;53.868;10.728;2023-04-16T08:09:06;23.73;;;13.00;;
70367;SDS011;57789;53.868;10.728;2023-04-16T08:11:32;20.97;;;13.73;;
70367;SDS011;57789;53.868;10.728;2023-04-16T08:13:58;38.40;;;14.03;;
70367;SDS011;57789;53.868;10.728;2023-04-16T08:16:24;34.17;;;12.80;;
70367;SDS011;57789;53.868;10.728;2023-04-16T08:18:49;23.23;;;13.07;;
70367;SDS011;57789;53.868;10.728;2023-04-16T08:21:15;19.03;;;13.40;;
70367;SDS011;57789;53.868;10.728;2023-04-16T08:23:41;24.30;;;12.33;;
70367;SDS011;57789;53.868;10.728;2023-04-16T08:26:07;20.53;;;11.03;;
70367;SDS011;57789;53.868;10.728;2023-04-16T08:28:32;22.90;;;13.20;;
70367;SDS011;57789;53.868;10.728;2023-04-16T08:30:58;19.63;;;12.93;;
70367;SDS011;57789;53.868;10.728;2023-04-16T08:33:24;18.33;;;11.47;;
70367;SDS011;57789;53.868;10.728;2023-04-16T08:35:50;23.17;;;12.13;;
70367;SDS011;57789;53.868;10.728;2023-04-16T08:38:15;22.07;;;11.63;;
70367;SDS011;57789;53.868;10.728;2023-04-16T08:40:41;21.50;;;12.70;;
70367;SDS011;57789;53.868;10.728;2023-04-16T08:43:10;19.13;;;11.30;;
70367;SDS011;57789;53.868;10.728;2023-04-16T08:45:38;15.73;;;10.83;;
70367;SDS011;57789;53.868;10.728;2023-04-16T08:48:06;20.63;;;10.97;;
70367;SDS011;57789;53.868;10.728;2023-04-16T08:50:35;21.33;;;12.20;;
70367;SDS011;57789;53.868;10.728;2023-04-16T08:53:04;18.77;;;10.30;;
70367;SDS011;57789;53.868;10.728;2023-04-16T08:55:42;18.33;;;11.40;;
70367;SDS011;57789;53.868;10.728;2023-04-16T08:58:13;19.20;;;10.50;;
70367;SDS011;57789;53.868;10.728;2023-04-16T09:00:39;20.83;;;9.70;;
70367;SDS011;57789;53.868;10.728;2023-04-16T09:03:06;16.03;;;10.90;;
70367;SDS011;57789;53.868;10.728;2023-04-16T09:05:33;14.70;;;9.70;;
70367;SDS011;57789;53.868;10.728;2023-04-16T09:07:59;25.00;;;11.17;;
70367;SDS011;57789;53.868;10.728;2023-04-16T09:10:25;18.53;;;9.80;;
70367;SDS011;57789;53.868;10.728;2023-04-16T09:12:54;16.60;;;10.20;;
70367;SDS011;57789;53.868;10.728;2023-04-16T09:15:20;17.37;;;11.03;;
70367;SDS011;57789;53.868;10.728;2023-04-16T09:17:46;21.13;;;10.77;;
70367;SDS011;57789;53.868;10.728;2023-04-16T09:20:14;20.17;;;11.23;;
70367;SDS011;57789;53.868;10.728;2023-04-16T09:22:40;18.67;;;10.20;;
70367;SDS011;57789;53.868;10.728;2023-04-16T09:25:07;18.23;;;10.53;;
70367;SDS011;57789;53.868;10.728;2023-04-16T09:27:33;23.07;;;12.30;;
70367;SDS011;57789;53.868;10.728;2023-04-16T09:30:00;20.80;;;13.13;;
70367;SDS011;57789;53.868;10.728;2023-04-16T09:32:26;25.37;;;12.57;;
70367;SDS011;57789;53.868;10.728;2023-04-16T09:34:56;22.83;;;12.30;;
70367;SDS011;57789;53.868;10.728;2023-04-16T09:37:29;23.87;;;13.10;;
70367;SDS011;57789;53.868;10.728;2023-04-16T09:39:55;22.37;;;11.77;;
70367;SDS011;57789;53.868;10.728;2023-04-16T09:42:23;25.07;;;12.83;;
70367;SDS011;57789;53.868;10.728;2023-04-16T09:44:51;18.67;;;11.10;;
70367;SDS011;57789;53.868;10.728;2023-04-16T09:47:18;18.17;;;12.33;;
70367;SDS011;57789;53.868;10.728;2023-04-16T09:49:43;24.60;;;12.30;;
70367;SDS011;57789;53.868;10.728;2023-04-16T09:52:14;22.53;;;13.43;;
70367;SDS011;57789;53.868;10.728;2023-04-16T09:54:51;20.07;;;11.17;;
70367;SDS011;57789;53.868;10.728;2023-04-16T09:57:21;18.10;;;12.00;;
70367;SDS011;57789;53.868;10.728;2023-04-16T09:59:50;20.20;;;12.10;;
70367;SDS011;57789;53.868;10.728;2023-04-16T10:02:27;20.17;;;10.67;;
70367;SDS011;57789;53.868;10.728;2023-04-16T10:04:54;18.23;;;11.20;;
70367;SDS011;57789;53.868;10.728;2023-04-16T10:07:21;17.23;;;10.53;;
70367;SDS011;57789;53.868;10.728;2023-04-16T10:09:51;22.33;;;11.43;;
70367;SDS011;57789;53.868;10.728;2023-04-16T10:12:17;20.83;;;10.80;;
70367;SDS011;57789;53.868;10.728;2023-04-16T10:14:44;25.90;;;10.27;;
70367;SDS011;57789;53.868;10.728;2023-04-16T10:17:09;19.70;;;11.53;;
70367;SDS011;57789;53.868;10.728;2023-04-16T10:19:35;25.00;;;11.73;;
70367;SDS011;57789;53.868;10.728;2023-04-16T10:22:01;21.03;;;12.10;;
70367;SDS011;57789;53.868;10.728;2023-04-16T10:24:29;18.23;;;10.57;;
70367;SDS011;57789;53.868;10.728;2023-04-16T10:26:56;19.83;;;10.30;;
70367;SDS011;57789;53.868;10.728;2023-04-16T10:29:22;16.43;;;9.90;;
70367;SDS011;57789;53.868;10.728;2023-04-16T10:31:48;20.00;;;10.70;;
70367;SDS011;57789;53.868;10.728;2023-04-16T10:34:15;26.87;;;11.77;;
70367;SDS011;57789;53.868;10.728;2023-04-16T10:36:42;22.97;;;11.20;;
70367;SDS011;57789;53.868;10.728;2023-04-16T10:39:11;17.20;;;9.50;;
70367;SDS011;57789;53.868;10.728;2023-04-16T10:41:38;26.93;;;13.00;;
70367;SDS011;57789;53.868;10.728;2023-04-16T10:44:05;24.53;;;10.90;;
70367;SDS011;57789;53.868;10.728;2023-04-16T10:46:45;22.43;;;11.80;;
70367;SDS011;57789;53.868;10.728;2023-04-16T10:49:15;18.70;;;10.10;;
70367;SDS011;57789;53.868;10.728;2023-04-16T10:52:00;18.93;;;9.60;;
70367;SDS011;57789;53.868;10.728;2023-04-16T10:54:33;21.10;;;11.13;;
70367;SDS011;57789;53.868;10.728;2023-04-16T10:57:04;25.50;;;13.70;;
70367;SDS011;57789;53.868;10.728;2023-04-16T10:59:32;20.93;;;9.80;;
70367;SDS011;57789;53.868;10.728;2023-04-16T11:02:00;20.73;;;11.53;;
70367;SDS011;57789;53.868;10.728;2023-04-16T11:09:42;25.57;;;13.30;;
70367;SDS011;57789;53.868;10.728;2023-04-16T11:12:11;20.33;;;11.53;;
70367;SDS011;57789;53.868;10.728;2023-04-16T11:14:39;22.60;;;10.10;;
70367;SDS011;57789;53.868;10.728;2023-04-16T11:17:06;16.50;;;8.83;;
70367;SDS011;57789;53.868;10.728;2023-04-16T11:19:32;15.33;;;9.90;;
70367;SDS011;57789;53.868;10.728;2023-04-16T11:22:00;21.00;;;10.40;;
70367;SDS011;57789;53.868;10.728;2023-04-16T11:24:29;18.23;;;10.23;;
70367;SDS011;57789;53.868;10.728;2023-04-16T11:26:56;21.23;;;9.47;;
70367;SDS011;57789;53.868;10.728;2023-04-16T11:29:22;13.10;;;9.87;;
70367;SDS011;57789;53.868;10.728;2023-04-16T11:31:50;21.57;;;10.43;;
70367;SDS011;57789;53.868;10.728;2023-04-16T11:34:17;20.37;;;10.83;;
70367;SDS011;57789;53.868;10.728;2023-04-16T11:36:47;16.40;;;9.47;;
70367;SDS011;57789;53.868;10.728;2023-04-16T11:39:14;22.73;;;9.90;;
70367;SDS011;57789;53.868;10.728;2023-04-16T11:41:43;20.43;;;10.73;;
70367;SDS011;57789;53.868;10.728;2023-04-16T11:44:30;16.43;;;9.70;;
70367;SDS011;57789;53.868;10.728;2023-04-16T11:46:56;15.20;;;9.33;;
70367;SDS011;57789;53.868;10.728;2023-04-16T11:49:30;20.10;;;10.30;;
70367;SDS011;57789;53.868;10.728;2023-04-16T11:51:56;16.00;;;9.67;;
70367;SDS011;57789;53.868;10.728;2023-04-16T11:54:23;15.57;;;9.33;;
70367;SDS011;57789;53.868;10.728;2023-04-16T11:56:51;17.33;;;10.93;;
70367;SDS011;57789;53.868;10.728;2023-04-16T11:59:18;17.67;;;9.77;;
70367;SDS011;57789;53.868;10.728;2023-04-16T12:01:47;18.83;;;10.20;;
70367;SDS011;57789;53.868;10.728;2023-04-16T12:04:20;13.07;;;9.40;;
70367;SDS011;57789;53.868;10.728;2023-04-16T12:09:33;17.43;;;10.07;;
70367;SDS011;57789;53.868;10.728;2023-04-16T12:12:00;22.30;;;10.10;;
70367;SDS011;57789;53.868;10.728;2023-04-16T12:14:26;14.57;;;9.63;;
70367;SDS011;57789;53.868;10.728;2023-04-16T12:16:52;20.80;;;10.00;;
70367;SDS011;57789;53.868;10.728;2023-04-16T12:19:18;13.93;;;9.00;;
70367;SDS011;57789;53.868;10.728;2023-04-16T12:21:45;15.77;;;9.23;;
70367;SDS011;57789;53.868;10.728;2023-04-16T12:24:17;22.20;;;11.50;;
70367;SDS011;57789;53.868;10.728;2023-04-16T12:26:51;24.50;;;11.10;;
70367;SDS011;57789;53.868;10.728;2023-04-16T12:29:25;16.97;;;10.57;;
70367;SDS011;57789;53.868;10.728;2023-04-16T12:31:52;23.53;;;11.17;;
70367;SDS011;57789;53.868;10.728;2023-04-16T12:34:18;22.00;;;11.40;;
70367;SDS011;57789;53.868;10.728;2023-04-16T12:36:45;16.90;;;9.70;;
70367;SDS011;57789;53.868;10.728;2023-04-16T12:39:12;17.43;;;11.03;;
70367;SDS011;57789;53.868;10.728;2023-04-16T12:41:40;31.97;;;17.37;;
70367;SDS011;57789;53.868;10.728;2023-04-16T12:44:08;15.70;;;10.40;;
70367;SDS011;57789;53.868;10.728;2023-04-16T12:46:40;22.00;;;13.10;;
70367;SDS011;57789;53.868;10.728;2023-04-16T12:49:08;23.47;;;10.70;;
70367;SDS011;57789;53.868;10.728;2023-04-16T12:51:34;23.97;;;10.70;;
70367;SDS011;57789;53.868;10.728;2023-04-16T12:54:04;15.60;;;9.30;;
70367;SDS011;57789;53.868;10.728;2023-04-16T12:56:33;15.23;;;9.63;;
70367;SDS011;57789;53.868;10.728;2023-04-16T12:59:00;18.33;;;10.67;;
70367;SDS011;57789;53.868;10.728;2023-04-16T13:01:26;19.13;;;10.77;;
70367;SDS011;57789;53.868;10.728;2023-04-16T13:03:51;16.33;;;9.00;;
70367;SDS011;57789;53.868;10.728;2023-04-16T13:06:17;13.27;;;9.70;;
70367;SDS011;57789;53.868;10.728;2023-04-16T13:08:44;20.53;;;9.83;;
70367;SDS011;57789;53.868;10.728;2023-04-16T13:11:10;13.33;;;9.23;;
70367;SDS011;57789;53.868;10.728;2023-04-16T13:13:36;15.90;;;9.47;;
70367;SDS011;57789;53.868;10.728;2023-04-16T13:16:02;16.37;;;10.80;;
70367;SDS011;57789;53.868;10.728;2023-04-16T13:18:30;18.63;;;10.23;;
70367;SDS011;57789;53.868;10.728;2023-04-16T13:20:56;15.97;;;10.43;;
70367;SDS011;57789;53.868;10.728;2023-04-16T13:23:22;18.77;;;10.20;;
70367;SDS011;57789;53.868;10.728;2023-04-16T13:25:48;14.30;;;9.43;;
70367;SDS011;57789;53.868;10.728;2023-04-16T13:28:14;13.97;;;9.60;;
70367;SDS011;57789;53.868;10.728;2023-04-16T13:30:40;15.70;;;10.13;;
70367;SDS011;57789;53.868;10.728;2023-04-16T13:33:06;18.97;;;10.37;;
70367;SDS011;57789;53.868;10.728;2023-04-16T13:35:32;17.93;;;10.40;;
70367;SDS011;57789;53.868;10.728;2023-04-16T13:37:58;16.80;;;9.57;;
70367;SDS011;57789;53.868;10.728;2023-04-16T13:40:23;20.27;;;12.10;;
70367;SDS011;57789;53.868;10.728;2023-04-16T13:42:49;17.93;;;10.00;;
70367;SDS011;57789;53.868;10.728;2023-04-16T13:45:15;18.60;;;9.83;;
70367;SDS011;57789;53.868;10.728;2023-04-16T13:47:41;16.07;;;10.37;;
70367;SDS011;57789;53.868;10.728;2023-04-16T13:50:07;17.67;;;10.90;;
70367;SDS011;57789;53.868;10.728;2023-04-16T13:52:33;16.07;;;10.60;;
70367;SDS011;57789;53.868;10.728;2023-04-16T13:54:59;20.73;;;11.03;;
70367;SDS011;57789;53.868;10.728;2023-04-16T13:57:25;15.90;;;9.73;;
70367;SDS011;57789;53.868;10.728;2023-04-16T13:59:52;16.60;;;10.10;;
70367;SDS011;57789;53.868;10.728;2023-04-16T14:02:18;16.90;;;8.33;;
70367;SDS011;57789;53.868;10.728;2023-04-16T14:04:44;19.03;;;9.50;;
70367;SDS011;57789;53.868;10.728;2023-04-16T14:07:10;16.83;;;9.57;;
70367;SDS011;57789;53.868;10.728;2023-04-16T14:09:36;15.27;;;9.37;;
70367;SDS011;57789;53.868;10.728;2023-04-16T14:12:01;15.83;;;9.10;;
70367;SDS011;57789;53.868;10.728;2023-04-16T14:14:27;14.03;;;9.07;;
70367;SDS011;57789;53.868;10.728;2023-04-16T14:16:53;13.90;;;8.50;;